Weather at Southern Wisconsin Regional Airport

Public forecast

Using degrees Fahrenheit for public forecast. Weather courtesy of forecast.io.

Current aviation weather report (METAR) for Southern Wisconsin Regional Airport

Retrieved 2021/05/12 00:45 UTC (1 hour ago):

KJVL 120045Z 07005KT 10SM FEW070 12/M04 A3035

Aviation forecast (TAF) for Southern Wisconsin Regional Airport

Retrieved 2021-05-12 00:22 UTC (2 hours ago):

TAF KJVL 112320Z 1200/1224 04005KT P6SM SCT070 FM120300 00000KT P6SM SKC FM121400 31004KT P6SM SKC